sensor_id;sensor_type;location;lat;lon;timestamp;pressure;altitude;pressure_sealevel;temperature;humidity
13486;BME280;6815;59.336;17.998;2023-03-26T00:01:27;52232.88;;;-145.37;83.77
13486;BME280;6815;59.336;17.998;2023-03-26T00:03:54;52326.72;;;-145.37;83.61
13486;BME280;6815;59.336;17.998;2023-03-26T00:06:23;52238.88;;;-145.37;83.41
13486;BME280;6815;59.336;17.998;2023-03-26T00:08:50;52252.84;;;-145.37;83.44
13486;BME280;6815;59.336;17.998;2023-03-26T00:11:19;52250.84;;;-145.37;83.76
13486;BME280;6815;59.336;17.998;2023-03-26T00:13:47;52262.81;;;-145.37;83.42
13486;BME280;6815;59.336;17.998;2023-03-26T00:16:14;52248.84;;;-145.37;83.84
13486;BME280;6815;59.336;17.998;2023-03-26T00:18:41;52240.88;;;-145.37;83.30
13486;BME280;6815;59.336;17.998;2023-03-26T00:21:11;52280.78;;;-145.37;83.22
13486;BME280;6815;59.336;17.998;2023-03-26T00:23:36;52258.84;;;-145.37;82.38
13486;BME280;6815;59.336;17.998;2023-03-26T00:26:04;52276.81;;;-145.37;82.55
13486;BME280;6815;59.336;17.998;2023-03-26T00:28:38;52268.81;;;-145.37;82.96
13486;BME280;6815;59.336;17.998;2023-03-26T00:31:06;52252.84;;;-145.37;83.09
13486;BME280;6815;59.336;17.998;2023-03-26T00:33:32;52288.78;;;-145.37;82.46
13486;BME280;6815;59.336;17.998;2023-03-26T00:36:04;52224.91;;;-145.37;82.77
13486;BME280;6815;59.336;17.998;2023-03-26T00:38:30;52246.84;;;-145.37;83.14
13486;BME280;6815;59.336;17.998;2023-03-26T00:40:59;52254.84;;;-145.37;83.08
13486;BME280;6815;59.336;17.998;2023-03-26T00:43:30;52246.84;;;-145.37;82.80
13486;BME280;6815;59.336;17.998;2023-03-26T00:45:57;52226.91;;;-145.37;82.61
13486;BME280;6815;59.336;17.998;2023-03-26T00:48:23;52240.88;;;-145.37;82.25
13486;BME280;6815;59.336;17.998;2023-03-26T00:50:49;52226.91;;;-145.37;82.38
13486;BME280;6815;59.336;17.998;2023-03-26T00:53:16;52248.84;;;-145.37;82.74
13486;BME280;6815;59.336;17.998;2023-03-26T00:55:43;52248.84;;;-145.37;82.53
13486;BME280;6815;59.336;17.998;2023-03-26T00:58:11;52264.81;;;-145.37;82.86
13486;BME280;6815;59.336;17.998;2023-03-26T01:00:49;52270.81;;;-145.37;83.46
13486;BME280;6815;59.336;17.998;2023-03-26T01:03:16;52274.81;;;-145.37;82.96
13486;BME280;6815;59.336;17.998;2023-03-26T01:05:54;52218.91;;;-145.37;83.08
13486;BME280;6815;59.336;17.998;2023-03-26T01:08:25;52262.81;;;-145.37;82.92
13486;BME280;6815;59.336;17.998;2023-03-26T01:10:56;52244.84;;;-145.37;83.11
13486;BME280;6815;59.336;17.998;2023-03-26T01:13:40;52256.84;;;-145.37;83.13
13486;BME280;6815;59.336;17.998;2023-03-26T01:16:13;52262.81;;;-145.37;82.84
13486;BME280;6815;59.336;17.998;2023-03-26T01:18:45;52230.88;;;-145.37;83.58
13486;BME280;6815;59.336;17.998;2023-03-26T01:21:11;52216.91;;;-145.37;83.38
13486;BME280;6815;59.336;17.998;2023-03-26T01:23:46;52258.84;;;-145.37;82.16
13486;BME280;6815;59.336;17.998;2023-03-26T01:28:55;52262.81;;;-145.37;82.50
13486;BME280;6815;59.336;17.998;2023-03-26T01:31:32;52244.84;;;-145.37;82.47
13486;BME280;6815;59.336;17.998;2023-03-26T01:37:22;52242.88;;;-145.37;82.95
13486;BME280;6815;59.336;17.998;2023-03-26T01:39:56;52282.78;;;-145.37;82.61
13486;BME280;6815;59.336;17.998;2023-03-26T01:45:25;52250.84;;;-145.37;82.45
13486;BME280;6815;59.336;17.998;2023-03-26T01:47:52;52246.84;;;-145.37;82.09
13486;BME280;6815;59.336;17.998;2023-03-26T01:50:19;52264.81;;;-145.37;81.92
13486;BME280;6815;59.336;17.998;2023-03-26T01:52:47;52226.91;;;-145.37;82.58
13486;BME280;6815;59.336;17.998;2023-03-26T01:55:13;52200.94;;;-145.37;82.43
13486;BME280;6815;59.336;17.998;2023-03-26T02:00:39;52268.81;;;-145.37;81.02
13486;BME280;6815;59.336;17.998;2023-03-26T02:03:24;52264.81;;;-145.37;81.62
13486;BME280;6815;59.336;17.998;2023-03-26T02:06:25;52260.84;;;-145.37;81.90
13486;BME280;6815;59.336;17.998;2023-03-26T02:09:04;52242.88;;;-145.37;81.88
13486;BME280;6815;59.336;17.998;2023-03-26T02:11:32;52212.91;;;-145.37;81.59
13486;BME280;6815;59.336;17.998;2023-03-26T02:13:59;52240.88;;;-145.37;81.55
13486;BME280;6815;59.336;17.998;2023-03-26T02:16:24;52196.94;;;-145.37;81.63
13486;BME280;6815;59.336;17.998;2023-03-26T02:18:50;52196.94;;;-145.37;81.98
13486;BME280;6815;59.336;17.998;2023-03-26T02:21:21;52258.84;;;-145.37;81.93
13486;BME280;6815;59.336;17.998;2023-03-26T02:23:49;52244.84;;;-145.37;82.46
13486;BME280;6815;59.336;17.998;2023-03-26T02:26:21;52256.84;;;-145.37;82.96
13486;BME280;6815;59.336;17.998;2023-03-26T02:28:47;52264.81;;;-145.37;82.17
13486;BME280;6815;59.336;17.998;2023-03-26T02:31:13;52220.91;;;-145.37;82.10
13486;BME280;6815;59.336;17.998;2023-03-26T02:33:41;52198.94;;;-145.37;82.64
13486;BME280;6815;59.336;17.998;2023-03-26T02:36:09;52288.78;;;-145.37;83.12
13486;BME280;6815;59.336;17.998;2023-03-26T02:38:36;52214.91;;;-145.37;82.56
13486;BME280;6815;59.336;17.998;2023-03-26T02:41:02;52284.78;;;-145.37;83.01
13486;BME280;6815;59.336;17.998;2023-03-26T02:43:28;52288.78;;;-145.37;82.99
13486;BME280;6815;59.336;17.998;2023-03-26T02:45:53;52224.91;;;-145.37;84.19
13486;BME280;6815;59.336;17.998;2023-03-26T02:48:19;52284.78;;;-145.37;83.64
13486;BME280;6815;59.336;17.998;2023-03-26T02:50:45;52224.91;;;-145.37;84.09
13486;BME280;6815;59.336;17.998;2023-03-26T02:53:17;52270.81;;;-145.37;84.15
13486;BME280;6815;59.336;17.998;2023-03-26T02:55:42;52268.81;;;-145.37;84.29
13486;BME280;6815;59.336;17.998;2023-03-26T02:58:08;52232.88;;;-145.37;84.71
13486;BME280;6815;59.336;17.998;2023-03-26T03:00:33;52250.84;;;-145.37;83.73
13486;BME280;6815;59.336;17.998;2023-03-26T03:03:00;52274.81;;;-145.37;83.83
13486;BME280;6815;59.336;17.998;2023-03-26T03:05:29;52262.81;;;-145.37;84.07
13486;BME280;6815;59.336;17.998;2023-03-26T03:07:56;52258.84;;;-145.37;83.55
13486;BME280;6815;59.336;17.998;2023-03-26T03:10:26;52264.81;;;-145.37;84.62
13486;BME280;6815;59.336;17.998;2023-03-26T03:12:52;52224.91;;;-145.37;84.27
13486;BME280;6815;59.336;17.998;2023-03-26T03:15:18;52246.84;;;-145.37;83.90
13486;BME280;6815;59.336;17.998;2023-03-26T03:17:44;52254.84;;;-145.37;84.28
13486;BME280;6815;59.336;17.998;2023-03-26T03:20:10;52234.88;;;-145.37;83.42
13486;BME280;6815;59.336;17.998;2023-03-26T03:22:36;52204.94;;;-145.37;83.37
13486;BME280;6815;59.336;17.998;2023-03-26T03:25:03;52286.78;;;-145.37;84.09
13486;BME280;6815;59.336;17.998;2023-03-26T03:27:29;52222.91;;;-145.37;83.47
13486;BME280;6815;59.336;17.998;2023-03-26T03:29:55;52260.84;;;-145.37;84.16
13486;BME280;6815;59.336;17.998;2023-03-26T03:32:23;52254.84;;;-145.37;84.27
13486;BME280;6815;59.336;17.998;2023-03-26T03:34:48;52228.88;;;-145.37;84.69
13486;BME280;6815;59.336;17.998;2023-03-26T03:37:16;52270.81;;;-145.37;84.54
13486;BME280;6815;59.336;17.998;2023-03-26T03:39:41;52230.88;;;-145.37;84.36
13486;BME280;6815;59.336;17.998;2023-03-26T03:42:07;52246.84;;;-145.37;83.42
13486;BME280;6815;59.336;17.998;2023-03-26T03:44:33;52186.97;;;-145.37;84.62
13486;BME280;6815;59.336;17.998;2023-03-26T03:46:59;52246.84;;;-145.37;85.38
13486;BME280;6815;59.336;17.998;2023-03-26T03:49:25;52240.88;;;-145.37;84.73
13486;BME280;6815;59.336;17.998;2023-03-26T03:51:50;52260.84;;;-145.37;84.60
13486;BME280;6815;59.336;17.998;2023-03-26T03:54:15;52282.78;;;-145.37;84.77
13486;BME280;6815;59.336;17.998;2023-03-26T03:56:42;52244.84;;;-145.37;84.97
13486;BME280;6815;59.336;17.998;2023-03-26T03:59:10;52276.81;;;-145.37;84.65
13486;BME280;6815;59.336;17.998;2023-03-26T04:01:35;52228.88;;;-145.37;85.13
13486;BME280;6815;59.336;17.998;2023-03-26T04:04:01;52246.84;;;-145.37;85.38
13486;BME280;6815;59.336;17.998;2023-03-26T04:06:26;52244.84;;;-145.37;84.98
13486;BME280;6815;59.336;17.998;2023-03-26T04:08:57;52224.91;;;-145.37;85.03
13486;BME280;6815;59.336;17.998;2023-03-26T04:11:22;52222.91;;;-145.37;85.58
13486;BME280;6815;59.336;17.998;2023-03-26T04:13:48;52238.88;;;-145.37;85.41
13486;BME280;6815;59.336;17.998;2023-03-26T04:16:14;52248.84;;;-145.37;85.04
13486;BME280;6815;59.336;17.998;2023-03-26T04:18:39;52220.91;;;-145.37;85.88
13486;BME280;6815;59.336;17.998;2023-03-26T04:21:05;52282.78;;;-145.37;84.77
13486;BME280;6815;59.336;17.998;2023-03-26T04:23:32;52278.78;;;-145.37;85.23
13486;BME280;6815;59.336;17.998;2023-03-26T04:26:04;52254.84;;;-145.37;85.17
13486;BME280;6815;59.336;17.998;2023-03-26T04:31:16;52262.81;;;-145.37;85.46
13486;BME280;6815;59.336;17.998;2023-03-26T04:33:46;52232.88;;;-145.37;85.84
13486;BME280;6815;59.336;17.998;2023-03-26T04:36:13;52252.84;;;-145.37;86.23
13486;BME280;6815;59.336;17.998;2023-03-26T04:38:42;52228.88;;;-145.37;85.86
13486;BME280;6815;59.336;17.998;2023-03-26T04:41:11;52260.84;;;-145.37;85.24
13486;BME280;6815;59.336;17.998;2023-03-26T04:43:36;52294.75;;;-145.37;85.61
13486;BME280;6815;59.336;17.998;2023-03-26T04:46:14;52258.84;;;-145.37;86.12
13486;BME280;6815;59.336;17.998;2023-03-26T04:48:43;52220.91;;;-145.37;85.35
13486;BME280;6815;59.336;17.998;2023-03-26T04:51:12;52260.84;;;-145.37;85.68
13486;BME280;6815;59.336;17.998;2023-03-26T04:53:52;52232.88;;;-145.37;86.06
13486;BME280;6815;59.336;17.998;2023-03-26T04:59:11;52296.75;;;-145.37;85.86
13486;BME280;6815;59.336;17.998;2023-03-26T05:01:40;52278.78;;;-145.37;86.31
13486;BME280;6815;59.336;17.998;2023-03-26T05:04:06;52296.75;;;-145.37;86.19
13486;BME280;6815;59.336;17.998;2023-03-26T05:06:32;52236.88;;;-145.37;85.97
13486;BME280;6815;59.336;17.998;2023-03-26T05:08:59;52276.81;;;-145.37;85.43
13486;BME280;6815;59.336;17.998;2023-03-26T05:11:26;52256.84;;;-145.37;86.48
13486;BME280;6815;59.336;17.998;2023-03-26T05:13:51;52246.84;;;-145.37;86.02
13486;BME280;6815;59.336;17.998;2023-03-26T05:16:17;52264.81;;;-145.37;85.61
13486;BME280;6815;59.336;17.998;2023-03-26T05:18:42;52232.88;;;-145.37;86.11
13486;BME280;6815;59.336;17.998;2023-03-26T05:21:08;52238.88;;;-145.37;85.56
13486;BME280;6815;59.336;17.998;2023-03-26T05:23:33;52304.75;;;-145.37;85.56
13486;BME280;6815;59.336;17.998;2023-03-26T05:25:59;52264.81;;;-145.37;85.47
13486;BME280;6815;59.336;17.998;2023-03-26T05:28:24;52266.81;;;-145.37;85.57
13486;BME280;6815;59.336;17.998;2023-03-26T05:30:51;52258.84;;;-145.37;85.19
13486;BME280;6815;59.336;17.998;2023-03-26T05:33:18;52242.88;;;-145.37;84.93
13486;BME280;6815;59.336;17.998;2023-03-26T05:35:43;52244.84;;;-145.37;84.77
13486;BME280;6815;59.336;17.998;2023-03-26T05:38:09;52274.81;;;-145.37;84.99
13486;BME280;6815;59.336;17.998;2023-03-26T05:40:35;52268.81;;;-145.37;85.27
13486;BME280;6815;59.336;17.998;2023-03-26T05:43:01;52262.81;;;-145.37;84.44
13486;BME280;6815;59.336;17.998;2023-03-26T05:45:26;52274.81;;;-145.37;84.57
13486;BME280;6815;59.336;17.998;2023-03-26T05:47:52;52258.84;;;-145.37;83.90
13486;BME280;6815;59.336;17.998;2023-03-26T05:50:19;52268.81;;;-145.37;84.42
13486;BME280;6815;59.336;17.998;2023-03-26T05:52:45;52250.84;;;-145.37;84.87
13486;BME280;6815;59.336;17.998;2023-03-26T05:55:11;52266.81;;;-145.37;84.17
13486;BME280;6815;59.336;17.998;2023-03-26T05:57:38;52254.84;;;-145.37;84.11
13486;BME280;6815;59.336;17.998;2023-03-26T06:00:05;52280.78;;;-145.37;84.37
13486;BME280;6815;59.336;17.998;2023-03-26T06:02:33;52254.84;;;-145.37;83.84
13486;BME280;6815;59.336;17.998;2023-03-26T06:04:59;52272.81;;;-145.37;83.69
13486;BME280;6815;59.336;17.998;2023-03-26T06:07:26;52252.84;;;-145.37;83.70
13486;BME280;6815;59.336;17.998;2023-03-26T06:09:52;52244.84;;;-145.37;83.81
13486;BME280;6815;59.336;17.998;2023-03-26T06:12:18;52222.91;;;-145.37;82.77
13486;BME280;6815;59.336;17.998;2023-03-26T06:14:44;52212.91;;;-145.37;83.05
13486;BME280;6815;59.336;17.998;2023-03-26T06:17:11;52228.88;;;-145.37;83.61
13486;BME280;6815;59.336;17.998;2023-03-26T06:19:37;52234.88;;;-145.37;83.12
13486;BME280;6815;59.336;17.998;2023-03-26T06:22:04;52268.81;;;-145.37;82.39
13486;BME280;6815;59.336;17.998;2023-03-26T06:24:29;52254.84;;;-145.37;82.54
13486;BME280;6815;59.336;17.998;2023-03-26T06:26:55;52274.81;;;-145.37;82.63
13486;BME280;6815;59.336;17.998;2023-03-26T06:29:20;52244.84;;;-145.37;81.91
13486;BME280;6815;59.336;17.998;2023-03-26T06:31:46;52274.81;;;-145.37;81.77
13486;BME280;6815;59.336;17.998;2023-03-26T06:34:11;52278.78;;;-145.37;81.65
13486;BME280;6815;59.336;17.998;2023-03-26T06:36:37;52272.81;;;-145.37;81.49
13486;BME280;6815;59.336;17.998;2023-03-26T06:39:03;52246.84;;;-145.37;81.79
13486;BME280;6815;59.336;17.998;2023-03-26T06:41:28;52244.84;;;-145.37;81.36
13486;BME280;6815;59.336;17.998;2023-03-26T06:43:54;52224.91;;;-145.37;81.60
13486;BME280;6815;59.336;17.998;2023-03-26T06:46:20;52276.81;;;-145.37;80.93
13486;BME280;6815;59.336;17.998;2023-03-26T06:48:45;52302.75;;;-145.37;80.74
13486;BME280;6815;59.336;17.998;2023-03-26T06:51:11;52238.88;;;-145.37;81.03
13486;BME280;6815;59.336;17.998;2023-03-26T06:53:36;52286.78;;;-145.37;81.21
13486;BME280;6815;59.336;17.998;2023-03-26T06:56:02;52296.75;;;-145.37;81.52
13486;BME280;6815;59.336;17.998;2023-03-26T06:58:28;52246.84;;;-145.37;81.30
13486;BME280;6815;59.336;17.998;2023-03-26T07:00:56;52260.84;;;-145.37;81.38
13486;BME280;6815;59.336;17.998;2023-03-26T07:03:22;52264.81;;;-145.37;81.44
13486;BME280;6815;59.336;17.998;2023-03-26T07:05:48;52272.81;;;-145.37;81.59
13486;BME280;6815;59.336;17.998;2023-03-26T07:08:14;52248.84;;;-145.37;81.70
13486;BME280;6815;59.336;17.998;2023-03-26T07:10:40;52228.88;;;-145.37;81.94
13486;BME280;6815;59.336;17.998;2023-03-26T07:13:05;52252.84;;;-145.37;82.02
13486;BME280;6815;59.336;17.998;2023-03-26T07:15:31;52298.75;;;-145.37;82.14
13486;BME280;6815;59.336;17.998;2023-03-26T07:17:56;52214.91;;;-145.37;82.02
13486;BME280;6815;59.336;17.998;2023-03-26T07:20:22;52252.84;;;-145.37;81.55
13486;BME280;6815;59.336;17.998;2023-03-26T07:22:50;52226.91;;;-145.37;81.90
13486;BME280;6815;59.336;17.998;2023-03-26T07:25:16;52224.91;;;-145.37;81.68
13486;BME280;6815;59.336;17.998;2023-03-26T07:28:16;52332.69;;;-145.37;81.30
13486;BME280;6815;59.336;17.998;2023-03-26T07:39:21;52286.78;;;-145.37;81.59
13486;BME280;6815;59.336;17.998;2023-03-26T07:42:26;52272.81;;;-145.37;81.49
13486;BME280;6815;59.336;17.998;2023-03-26T07:45:10;52290.78;;;-145.37;81.27
13486;BME280;6815;59.336;17.998;2023-03-26T07:47:41;52248.84;;;-145.37;80.88
13486;BME280;6815;59.336;17.998;2023-03-26T07:50:14;52296.75;;;-145.37;81.38
13486;BME280;6815;59.336;17.998;2023-03-26T07:52:40;52260.84;;;-145.37;81.88
13486;BME280;6815;59.336;17.998;2023-03-26T07:55:06;52254.84;;;-145.37;81.59
13486;BME280;6815;59.336;17.998;2023-03-26T08:00:20;52208.94;;;-145.37;80.71
13486;BME280;6815;59.336;17.998;2023-03-26T08:05:36;52234.88;;;-145.37;80.29
13486;BME280;6815;59.336;17.998;2023-03-26T08:08:18;52252.84;;;-145.37;80.25
13486;BME280;6815;59.336;17.998;2023-03-26T08:21:25;52276.81;;;-145.37;79.54
13486;BME280;6815;59.336;17.998;2023-03-26T08:24:09;52284.78;;;-145.37;79.79
13486;BME280;6815;59.336;17.998;2023-03-26T08:27:00;52268.81;;;-145.37;79.25
13486;BME280;6815;59.336;17.998;2023-03-26T08:32:09;52268.81;;;-145.37;79.27
13486;BME280;6815;59.336;17.998;2023-03-26T08:34:38;52240.88;;;-145.37;78.88
13486;BME280;6815;59.336;17.998;2023-03-26T08:37:03;52292.78;;;-145.37;77.78
13486;BME280;6815;59.336;17.998;2023-03-26T08:39:28;52268.81;;;-145.37;78.49
13486;BME280;6815;59.336;17.998;2023-03-26T09:55:05;52228.88;;;-145.37;77.73
13486;BME280;6815;59.336;17.998;2023-03-26T10:00:46;52264.81;;;-145.37;77.71
13486;BME280;6815;59.336;17.998;2023-03-26T10:03:24;52304.75;;;-145.37;77.91
13486;BME280;6815;59.336;17.998;2023-03-26T10:09:16;52274.81;;;-145.37;78.23
13486;BME280;6815;59.336;17.998;2023-03-26T10:15:00;52308.75;;;-145.37;77.42
13486;BME280;6815;59.336;17.998;2023-03-26T10:17:49;52282.78;;;-145.37;77.93
13486;BME280;6815;59.336;17.998;2023-03-26T10:20:27;52260.84;;;-145.37;77.96
13486;BME280;6815;59.336;17.998;2023-03-26T10:23:22;52250.84;;;-145.37;77.86
13486;BME280;6815;59.336;17.998;2023-03-26T10:26:16;52284.78;;;-145.37;77.77
13486;BME280;6815;59.336;17.998;2023-03-26T10:51:57;52288.78;;;-145.37;77.26
13486;BME280;6815;59.336;17.998;2023-03-26T10:57:23;52264.81;;;-145.37;76.59
13486;BME280;6815;59.336;17.998;2023-03-26T10:59:54;52288.78;;;-145.37;76.40
13486;BME280;6815;59.336;17.998;2023-03-26T11:02:31;52312.72;;;-145.37;76.09
13486;BME280;6815;59.336;17.998;2023-03-26T11:05:50;52260.84;;;-145.37;75.38
13486;BME280;6815;59.336;17.998;2023-03-26T11:08:41;52284.78;;;-145.37;75.61
13486;BME280;6815;59.336;17.998;2023-03-26T11:16:48;52248.84;;;-145.37;75.82
13486;BME280;6815;59.336;17.998;2023-03-26T11:19:21;52274.81;;;-145.37;75.24
13486;BME280;6815;59.336;17.998;2023-03-26T11:32:43;52308.75;;;-145.37;74.11
13486;BME280;6815;59.336;17.998;2023-03-26T11:35:29;52268.81;;;-145.37;72.84
13486;BME280;6815;59.336;17.998;2023-03-26T11:38:33;52310.75;;;-145.37;72.57
13486;BME280;6815;59.336;17.998;2023-03-26T11:40:52;52264.81;;;-145.37;72.74
13486;BME280;6815;59.336;17.998;2023-03-26T11:43:23;52266.81;;;-145.37;72.64
13486;BME280;6815;59.336;17.998;2023-03-26T11:45:52;52296.75;;;-145.37;72.25
13486;BME280;6815;59.336;17.998;2023-03-26T11:48:25;52286.78;;;-145.37;72.50
13486;BME280;6815;59.336;17.998;2023-03-26T11:50:57;52284.78;;;-145.37;72.62
13486;BME280;6815;59.336;17.998;2023-03-26T11:53:32;52268.81;;;-145.37;72.31
13486;BME280;6815;59.336;17.998;2023-03-26T11:56:03;52246.84;;;-145.37;72.42
13486;BME280;6815;59.336;17.998;2023-03-26T12:01:01;52298.75;;;-145.37;71.29
13486;BME280;6815;59.336;17.998;2023-03-26T12:03:27;52250.84;;;-145.37;71.11
13486;BME280;6815;59.336;17.998;2023-03-26T12:05:57;52256.84;;;-145.37;71.17
13486;BME280;6815;59.336;17.998;2023-03-26T12:08:37;52262.81;;;-145.37;70.34
13486;BME280;6815;59.336;17.998;2023-03-26T12:11:08;52292.78;;;-145.37;70.60
13486;BME280;6815;59.336;17.998;2023-03-26T12:13:40;52274.81;;;-145.37;70.30
13486;BME280;6815;59.336;17.998;2023-03-26T12:16:13;52296.75;;;-145.37;69.84
13486;BME280;6815;59.336;17.998;2023-03-26T12:18:41;52296.75;;;-145.37;70.07
13486;BME280;6815;59.336;17.998;2023-03-26T12:21:12;52274.81;;;-145.37;70.03
13486;BME280;6815;59.336;17.998;2023-03-26T12:26:18;52306.75;;;-145.37;69.20
13486;BME280;6815;59.336;17.998;2023-03-26T12:28:49;52252.84;;;-145.37;69.97
13486;BME280;6815;59.336;17.998;2023-03-26T12:31:16;52294.75;;;-145.37;69.31
13486;BME280;6815;59.336;17.998;2023-03-26T12:33:44;52280.78;;;-145.37;68.63
13486;BME280;6815;59.336;17.998;2023-03-26T12:36:24;52248.84;;;-145.37;67.42
13486;BME280;6815;59.336;17.998;2023-03-26T12:38:53;52264.81;;;-145.37;66.74
13486;BME280;6815;59.336;17.998;2023-03-26T12:41:32;52234.88;;;-145.37;66.74
13486;BME280;6815;59.336;17.998;2023-03-26T12:44:25;52250.84;;;-145.37;66.46
13486;BME280;6815;59.336;17.998;2023-03-26T12:47:20;52254.84;;;-145.37;66.17
13486;BME280;6815;59.336;17.998;2023-03-26T12:49:48;52300.75;;;-145.37;65.80
13486;BME280;6815;59.336;17.998;2023-03-26T12:57:26;52298.75;;;-145.37;65.18
13486;BME280;6815;59.336;17.998;2023-03-26T13:05:35;52284.78;;;-145.37;64.48
13486;BME280;6815;59.336;17.998;2023-03-26T13:16:59;52280.78;;;-145.37;63.87
13486;BME280;6815;59.336;17.998;2023-03-26T13:19:57;52264.81;;;-145.37;63.77
13486;BME280;6815;59.336;17.998;2023-03-26T13:25:20;52292.78;;;-145.37;63.69
13486;BME280;6815;59.336;17.998;2023-03-26T13:30:48;52268.81;;;-145.37;63.49
13486;BME280;6815;59.336;17.998;2023-03-26T13:33:32;52274.81;;;-145.37;63.37
13486;BME280;6815;59.336;17.998;2023-03-26T13:36:23;52290.78;;;-145.37;62.85
13486;BME280;6815;59.336;17.998;2023-03-26T13:47:37;52284.78;;;-145.37;63.00
13486;BME280;6815;59.336;17.998;2023-03-26T13:50:17;52250.84;;;-145.37;63.24
13486;BME280;6815;59.336;17.998;2023-03-26T13:52:55;52214.91;;;-145.37;63.30
13486;BME280;6815;59.336;17.998;2023-03-26T13:55:46;52272.81;;;-145.37;63.82
13486;BME280;6815;59.336;17.998;2023-03-26T13:58:23;52292.78;;;-145.37;64.14
13486;BME280;6815;59.336;17.998;2023-03-26T14:01:11;52250.84;;;-145.37;64.09
13486;BME280;6815;59.336;17.998;2023-03-26T14:06:51;52258.84;;;-145.37;63.50
13486;BME280;6815;59.336;17.998;2023-03-26T14:14:50;52280.78;;;-145.37;61.64
13486;BME280;6815;59.336;17.998;2023-03-26T14:17:28;52312.72;;;-145.37;61.74
13486;BME280;6815;59.336;17.998;2023-03-26T14:20:19;52278.78;;;-145.37;62.24
13486;BME280;6815;59.336;17.998;2023-03-26T14:26:21;52264.81;;;-145.37;61.88
13486;BME280;6815;59.336;17.998;2023-03-26T14:35:01;52280.78;;;-145.37;58.77
13486;BME280;6815;59.336;17.998;2023-03-26T14:37:47;52234.88;;;-145.37;58.31
13486;BME280;6815;59.336;17.998;2023-03-26T14:40:27;52312.72;;;-145.37;59.23
13486;BME280;6815;59.336;17.998;2023-03-26T14:43:06;52226.91;;;-145.37;59.01
13486;BME280;6815;59.336;17.998;2023-03-26T14:48:37;52246.84;;;-145.37;59.74
13486;BME280;6815;59.336;17.998;2023-03-26T14:53:59;52312.72;;;-145.37;58.36
13486;BME280;6815;59.336;17.998;2023-03-26T15:05:06;52312.72;;;-145.37;58.64
13486;BME280;6815;59.336;17.998;2023-03-26T15:28:56;52294.75;;;-145.37;60.11
13486;BME280;6815;59.336;17.998;2023-03-26T15:42:06;52292.78;;;-145.37;60.23
13486;BME280;6815;59.336;17.998;2023-03-26T15:51:13;52270.81;;;-145.37;60.47
13486;BME280;6815;59.336;17.998;2023-03-26T15:54:08;52260.84;;;-145.37;60.52
13486;BME280;6815;59.336;17.998;2023-03-26T15:57:05;52244.84;;;-145.37;60.51
13486;BME280;6815;59.336;17.998;2023-03-26T15:59:57;52298.75;;;-145.37;60.46
13486;BME280;6815;59.336;17.998;2023-03-26T16:02:49;52288.78;;;-145.37;60.32
13486;BME280;6815;59.336;17.998;2023-03-26T16:10:50;52268.81;;;-145.37;60.83
13486;BME280;6815;59.336;17.998;2023-03-26T16:13:21;52286.78;;;-145.37;60.35
13486;BME280;6815;59.336;17.998;2023-03-26T16:18:44;52280.78;;;-145.37;60.47
13486;BME280;6815;59.336;17.998;2023-03-26T16:32:03;52302.75;;;-145.37;60.29
13486;BME280;6815;59.336;17.998;2023-03-26T16:34:54;52258.84;;;-145.37;60.43
13486;BME280;6815;59.336;17.998;2023-03-26T16:40:25;52250.84;;;-145.37;59.93
13486;BME280;6815;59.336;17.998;2023-03-26T16:46:32;52246.84;;;-145.37;60.48
13486;BME280;6815;59.336;17.998;2023-03-26T17:02:40;52300.75;;;-145.37;60.75
13486;BME280;6815;59.336;17.998;2023-03-26T17:08:04;52268.81;;;-145.37;60.74
13486;BME280;6815;59.336;17.998;2023-03-26T17:13:57;52278.78;;;-145.37;61.53
13486;BME280;6815;59.336;17.998;2023-03-26T17:17:20;52274.81;;;-145.37;61.58
13486;BME280;6815;59.336;17.998;2023-03-26T17:19:34;52240.88;;;-145.37;61.51
13486;BME280;6815;59.336;17.998;2023-03-26T17:25:25;52260.84;;;-145.37;61.66
13486;BME280;6815;59.336;17.998;2023-03-26T17:28:32;52302.75;;;-145.37;62.05
13486;BME280;6815;59.336;17.998;2023-03-26T17:33:36;52248.84;;;-145.37;62.40
13486;BME280;6815;59.336;17.998;2023-03-26T17:38:55;52304.75;;;-145.37;62.60
13486;BME280;6815;59.336;17.998;2023-03-26T17:41:49;52308.75;;;-145.37;62.00
13486;BME280;6815;59.336;17.998;2023-03-26T17:46:54;52260.84;;;-145.37;62.46
13486;BME280;6815;59.336;17.998;2023-03-26T17:49:27;52306.75;;;-145.37;62.17
13486;BME280;6815;59.336;17.998;2023-03-26T17:54:50;52276.81;;;-145.37;62.22
13486;BME280;6815;59.336;17.998;2023-03-26T18:00:16;52238.88;;;-145.37;62.30
13486;BME280;6815;59.336;17.998;2023-03-26T18:02:50;52266.81;;;-145.37;62.51
13486;BME280;6815;59.336;17.998;2023-03-26T18:05:20;52252.84;;;-145.37;62.87
13486;BME280;6815;59.336;17.998;2023-03-26T18:16:14;52242.88;;;-145.37;62.95
13486;BME280;6815;59.336;17.998;2023-03-26T18:18:58;52230.88;;;-145.37;62.81
13486;BME280;6815;59.336;17.998;2023-03-26T18:21:32;52214.91;;;-145.37;63.00
13486;BME280;6815;59.336;17.998;2023-03-26T18:24:00;52260.84;;;-145.37;62.83
13486;BME280;6815;59.336;17.998;2023-03-26T18:26:33;52282.78;;;-145.37;63.27
13486;BME280;6815;59.336;17.998;2023-03-26T18:31:35;52226.91;;;-145.37;63.37
13486;BME280;6815;59.336;17.998;2023-03-26T18:34:12;52258.84;;;-145.37;63.41
13486;BME280;6815;59.336;17.998;2023-03-26T18:36:38;52246.84;;;-145.37;63.33
13486;BME280;6815;59.336;17.998;2023-03-26T18:39:11;52292.78;;;-145.37;63.22
13486;BME280;6815;59.336;17.998;2023-03-26T18:41:38;52264.81;;;-145.37;63.25
13486;BME280;6815;59.336;17.998;2023-03-26T18:44:11;52240.88;;;-145.37;63.25
13486;BME280;6815;59.336;17.998;2023-03-26T18:46:37;52288.78;;;-145.37;63.44
13486;BME280;6815;59.336;17.998;2023-03-26T18:49:03;52282.78;;;-145.37;63.57
13486;BME280;6815;59.336;17.998;2023-03-26T18:51:30;52228.88;;;-145.37;63.93
13486;BME280;6815;59.336;17.998;2023-03-26T18:53:59;52258.84;;;-145.37;63.29
13486;BME280;6815;59.336;17.998;2023-03-26T18:59:00;52244.84;;;-145.37;63.57